Arethusa — 9HJR9 — position and weather

sailwx.info

Track history (hours):
 
Tides and Currents Weather Stations Pressure Air Temp Water Temp Dewpoint Dewpoint Depression Visibility Wind Speed Wind Dir Waves Ship Positions

Arethusa

Last reported at 2015-May-04 21:11 UTC. Time now 2015-May-06 02:22 UTC.
Position N 42°48' E 010°21'.

Length 60 m; draft 3 m.

Type: Passenger vessel. MMSI: 249069000.

Date/timePositionNaut miles runAvg speedWind from/ knotsBaromVisibWave heightAir tempDewpointWater temp
2015-May-04 21:11N 42°48' E 010°21'0 0.0
2015-May-04 20:32N 42°48' E 010°21'10 9.5
2015-May-04 19:30N 42°58' E 010°18'1010.1
2015-May-04 18:29N 43°08' E 010°16'910.1
2015-May-04 17:33N 43°18' E 010°15'10 9.7
2015-May-04 16:33N 43°27' E 010°13'7 6.5
2015-May-04 15:31N 43°33' E 010°18'0 0.0
2015-May-04 14:33N 43°33' E 010°18'0 0.0
2015-May-04 13:33N 43°33' E 010°18'0 0.0
2015-May-04 12:33N 43°33' E 010°18'0 0.0
2015-May-04 11:33N 43°33' E 010°18'0 0.0
2015-May-04 10:33N 43°33' E 010°18'0 0.0
2015-May-04 09:33N 43°33' E 010°18'0 0.0
2015-May-04 08:33N 43°33' E 010°18'0 0.0
2015-May-04 07:33N 43°33' E 010°18'0 0.0
2015-May-04 06:33N 43°33' E 010°18'0 0.0
2015-May-04 05:33N 43°33' E 010°18'0 0.0
2015-May-04 04:33N 43°33' E 010°18'0 0.0
2015-May-04 03:33N 43°33' E 010°18'0 0.0
2015-May-04 02:33N 43°33' E 010°18'0 0.0
2015-May-04 01:33N 43°33' E 010°18'0 0.0
2015-May-04 00:33N 43°33' E 010°18'0 0.0
2015-May-03 23:33N 43°33' E 010°18'0 0.0
2015-May-03 22:33N 43°33' E 010°18'5 5.2
2015-May-03 21:33N 43°29' E 010°14'1010.4
2015-May-03 20:33N 43°18' E 010°16'1110.7
2015-May-03 19:33N 43°08' E 010°18'1110.6
2015-May-03 18:33N 42°57' E 010°19'20 1.2
2015-May-03 02:10N 43°13' E 010°04'711.0
2015-May-03 01:34N 43°19' E 010°06'1110.8
2015-May-03 00:33N 43°30' E 010°06'1110.9
2015-May-02 23:33N 43°41' E 010°05'1111.1
2015-May-02 22:33N 43°52' E 010°04'10 9.9
2015-May-02 21:33N 44°02' E 010°02'0 0.1
2015-May-02 20:33N 44°02' E 010°02'0 0.0
2015-May-02 19:30N 44°02' E 010°02'0 0.0
2015-May-02 18:33N 44°02' E 010°02'0 0.0
2015-May-02 17:33N 44°02' E 010°02'0 0.0
2015-May-02 16:33N 44°02' E 010°02'0 0.0
2015-May-02 15:33N 44°02' E 010°02'0 0.0
2015-May-02 14:33N 44°02' E 010°02'0 0.0
2015-May-02 13:33N 44°02' E 010°02'0 0.0
2015-May-02 12:30N 44°02' E 010°02'0 0.0
2015-May-02 11:33N 44°02' E 010°02'0 0.0
2015-May-02 10:30N 44°02' E 010°02'0 0.0
2015-May-02 09:33N 44°02' E 010°02'0 0.0
2015-May-02 08:33N 44°02' E 010°02'0 0.0
2015-May-02 07:33N 44°02' E 010°02'0 0.0
2015-May-02 06:33N 44°02' E 010°02'0 0.0
2015-May-02 05:33N 44°02' E 010°02'0 0.0
2015-May-02 04:33N 44°02' E 010°02'0 0.0
2015-May-02 03:33N 44°02' E 010°02'0 0.0
2015-May-02 02:33N 44°02' E 010°02'0 0.0
2015-May-02 01:33N 44°02' E 010°02'0 0.0
2015-May-02 00:33N 44°02' E 010°02'0 0.0
2015-May-01 23:33N 44°02' E 010°02'0 0.0
2015-May-01 22:33N 44°02' E 010°02'0 0.0
2015-May-01 21:33N 44°02' E 010°02'0 0.0
2015-May-01 20:33N 44°02' E 010°02'0 0.0
2015-May-01 19:33N 44°02' E 010°02'0 0.0
2015-May-01 18:33N 44°02' E 010°02'0 0.0
2015-May-01 17:33N 44°02' E 010°02'0 0.0
2015-May-01 16:33N 44°02' E 010°02'0 0.0
2015-May-01 15:33N 44°02' E 010°02'0 0.0
2015-May-01 14:33N 44°02' E 010°02'0 0.0
2015-May-01 13:33N 44°02' E 010°02'0 0.0
2015-May-01 12:33N 44°02' E 010°02'0 0.0
2015-May-01 11:33N 44°02' E 010°02'0 0.0
2015-May-01 10:33N 44°02' E 010°02'0 0.0
2015-May-01 09:33N 44°02' E 010°02'0 0.0
2015-May-01 08:33N 44°02' E 010°02'0 0.0
2015-May-01 07:33N 44°02' E 010°02'0 0.0
2015-May-01 06:33N 44°02' E 010°02'0 0.0
2015-May-01 05:33N 44°02' E 010°02'0 0.0
2015-May-01 04:33N 44°02' E 010°02'0 0.0
2015-May-01 03:33N 44°02' E 010°02'0 0.0
2015-May-01 02:33N 44°02' E 010°02'0 0.0
2015-May-01 01:33N 44°02' E 010°02'0 0.0
2015-May-01 00:33N 44°02' E 010°02'0 0.0
2015-Apr-30 23:33N 44°02' E 010°02'0 0.0
2015-Apr-30 22:33N 44°02' E 010°02'0 0.0
2015-Apr-30 21:33N 44°02' E 010°02'0 0.0
2015-Apr-30 20:33N 44°02' E 010°02'0 0.0
2015-Apr-30 19:33N 44°02' E 010°02'0 0.0
2015-Apr-30 18:33N 44°02' E 010°02'0 0.0
2015-Apr-30 17:33N 44°02' E 010°02'0 0.0
2015-Apr-30 16:33N 44°02' E 010°02'7 7.2
2015-Apr-30 15:33N 44°02' E 009°52'2 1.8
2015-Apr-30 14:31N 44°03' E 009°51'0 0.0
2015-Apr-30 13:31N 44°03' E 009°51'0 0.0
2015-Apr-30 12:31N 44°03' E 009°51'0 0.0
2015-Apr-30 11:31N 44°03' E 009°51'0 0.0
2015-Apr-30 10:31N 44°03' E 009°51'0 0.0
2015-Apr-30 09:31N 44°03' E 009°51'0 0.0
2015-Apr-30 08:31N 44°03' E 009°51'0 0.0
2015-Apr-30 07:31N 44°03' E 009°51'0 0.0
2015-Apr-30 06:31N 44°03' E 009°51'0 0.0
2015-Apr-30 05:31N 44°03' E 009°51'0 0.0
2015-Apr-30 04:31N 44°03' E 009°51'0 0.0
2015-Apr-30 03:31N 44°03' E 009°51'0 0.0
2015-Apr-30 02:31N 44°03' E 009°51'0 0.0
2015-Apr-30 01:33N 44°03' E 009°51'0 0.0
2015-Apr-30 00:33N 44°03' E 009°51'0 0.0
2015-Apr-29 23:33N 44°03' E 009°51'0 0.0
2015-Apr-29 22:33N 44°03' E 009°51'0 0.0
2015-Apr-29 21:33N 44°03' E 009°51'0 0.0
2015-Apr-29 20:33N 44°03' E 009°51'1 0.9
2015-Apr-29 19:33N 44°03' E 009°52'6 6.3
2015-Apr-29 18:33N 44°01' E 009°44'1111.4
2015-Apr-29 17:33N 44°08' E 009°31'1311.2
2015-Apr-29 16:25N 44°17' E 009°18'4 0.2
2015-Apr-28 19:33N 44°16' E 009°13'1111.0
2015-Apr-28 18:33N 44°10' E 009°00'1111.3
2015-Apr-28 17:33N 44°04' E 008°47'1211.8
2015-Apr-28 16:33N 43°59' E 008°32'5611.0
2015-Apr-28 11:29N 43°40' E 007°19'2 2.2
2015-Apr-28 10:29N 43°42' E 007°17'0 0.0
2015-Apr-28 09:29N 43°42' E 007°17'0 0.0
2015-Apr-28 08:17N 43°42' E 007°17'0 0.0
2015-Apr-28 07:29N 43°42' E 007°17'0 0.0
2015-Apr-28 06:29N 43°42' E 007°17'0 0.0
2015-Apr-28 05:29N 43°42' E 007°17'0 0.0
2015-Apr-28 04:29N 43°42' E 007°17'0 0.0
2015-Apr-28 03:29N 43°42' E 007°17'0 0.0
2015-Apr-28 02:29N 43°42' E 007°17'0 0.0
2015-Apr-28 01:29N 43°42' E 007°17'0 0.0
2015-Apr-28 00:29N 43°42' E 007°17'0 0.0
2015-Apr-27 23:29N 43°42' E 007°17'0 0.0
2015-Apr-27 22:29N 43°42' E 007°17'0 0.0
2015-Apr-27 21:11N 43°42' E 007°17'0 0.0
2015-Apr-27 20:29N 43°42' E 007°17'0 0.0
2015-Apr-27 19:29N 43°42' E 007°17'0 0.0
2015-Apr-27 18:29N 43°42' E 007°17'0 0.0
2015-Apr-27 17:29N 43°42' E 007°17'0 0.0
2015-Apr-27 16:23N 43°42' E 007°17'0 0.0
2015-Apr-27 15:29N 43°42' E 007°17'0 0.0
2015-Apr-27 14:29N 43°42' E 007°17'0 0.0
2015-Apr-27 13:29N 43°42' E 007°17'0 0.0
2015-Apr-27 12:29N 43°42' E 007°17'0 0.0
2015-Apr-27 11:29N 43°42' E 007°17'0 0.0
2015-Apr-27 10:29N 43°42' E 007°17'0 0.0
2015-Apr-27 09:29N 43°42' E 007°17'0 0.0
2015-Apr-27 08:29N 43°42' E 007°17'0 0.0
2015-Apr-27 07:29N 43°42' E 007°17'0 0.0
2015-Apr-27 06:29N 43°42' E 007°17'0 0.0
2015-Apr-27 05:23N 43°42' E 007°17'0 0.0
2015-Apr-27 04:29N 43°42' E 007°17'0 0.0
2015-Apr-27 03:29N 43°42' E 007°17'0 0.0
2015-Apr-27 02:29N 43°42' E 007°17'0 0.0
2015-Apr-27 01:29N 43°42' E 007°17'0 0.0
2015-Apr-26 23:29N 43°42' E 007°17'0 0.0
2015-Apr-26 22:29N 43°42' E 007°17'0 0.0
2015-Apr-26 21:29N 43°42' E 007°17'0 0.0
2015-Apr-26 20:29N 43°42' E 007°17'0 0.0
2015-Apr-26 19:29N 43°42' E 007°17'0 0.0
2015-Apr-26 18:29N 43°42' E 007°17'0 0.0
2015-Apr-26 17:29N 43°42' E 007°17'0 0.0
2015-Apr-26 16:29N 43°42' E 007°17'0 0.0
2015-Apr-26 15:17N 43°42' E 007°17'0 0.0
2015-Apr-26 12:29N 43°42' E 007°17'0 0.0
2015-Apr-26 11:17N 43°42' E 007°17'0 0.0
2015-Apr-26 10:29N 43°42' E 007°17'0 0.0
2015-Apr-26 09:29N 43°42' E 007°17'0 0.0
2015-Apr-26 08:29N 43°42' E 007°17'0 0.0
2015-Apr-26 07:25N 43°42' E 007°17'0 0.0
2015-Apr-26 06:33N 43°42' E 007°17'74 9.2
2015-Apr-25 22:28N 44°09' E 008°53'9 9.5
2015-Apr-25 21:33N 44°12' E 009°04'10 8.4
2015-Apr-25 20:23N 44°19' E 009°14'2 0.2
2015-Apr-25 05:32N 44°18' E 009°17'1211.8
2015-Apr-25 04:33N 44°10' E 009°29'1211.7
2015-Apr-25 03:33N 44°02' E 009°41'8 7.7
2015-Apr-25 02:33N 44°03' E 009°51'0 0.3
2015-Apr-25 01:33N 44°03' E 009°51'0 0.0
2015-Apr-25 00:33N 44°03' E 009°51'0 0.0
2015-Apr-24 23:33N 44°03' E 009°51'0 0.0
2015-Apr-24 22:33N 44°03' E 009°51'0 0.0
2015-Apr-24 21:33N 44°03' E 009°51'  
Track history (hours):
 
Tides and Currents Weather Stations Pressure Air Temp Water Temp Dewpoint Dewpoint Depression Visibility Wind Speed Wind Dir Waves Ship Positions

Arethusa

Last reported at 2015-May-04 21:11 UTC. Time now 2015-May-06 02:22 UTC.
Position N 42°48' E 010°21'.

Length 60 m; draft 3 m.

Type: Passenger vessel. MMSI: 249069000.

Date/timePositionNaut miles runAvg speedWind from/ knotsBaromVisibWave heightAir tempDewpointWater temp
2015-May-04 21:11N 42°48' E 010°21'0 0.0
2015-May-04 20:32N 42°48' E 010°21'10 9.5
2015-May-04 19:30N 42°58' E 010°18'1010.1
2015-May-04 18:29N 43°08' E 010°16'910.1
2015-May-04 17:33N 43°18' E 010°15'10 9.7
2015-May-04 16:33N 43°27' E 010°13'7 6.5
2015-May-04 15:31N 43°33' E 010°18'0 0.0
2015-May-04 14:33N 43°33' E 010°18'0 0.0
2015-May-04 13:33N 43°33' E 010°18'0 0.0
2015-May-04 12:33N 43°33' E 010°18'0 0.0
2015-May-04 11:33N 43°33' E 010°18'0 0.0
2015-May-04 10:33N 43°33' E 010°18'0 0.0
2015-May-04 09:33N 43°33' E 010°18'0 0.0
2015-May-04 08:33N 43°33' E 010°18'0 0.0
2015-May-04 07:33N 43°33' E 010°18'0 0.0
2015-May-04 06:33N 43°33' E 010°18'0 0.0
2015-May-04 05:33N 43°33' E 010°18'0 0.0
2015-May-04 04:33N 43°33' E 010°18'0 0.0
2015-May-04 03:33N 43°33' E 010°18'0 0.0
2015-May-04 02:33N 43°33' E 010°18'0 0.0
2015-May-04 01:33N 43°33' E 010°18'0 0.0
2015-May-04 00:33N 43°33' E 010°18'0 0.0
2015-May-03 23:33N 43°33' E 010°18'0 0.0
2015-May-03 22:33N 43°33' E 010°18'5 5.2
2015-May-03 21:33N 43°29' E 010°14'1010.4
2015-May-03 20:33N 43°18' E 010°16'1110.7
2015-May-03 19:33N 43°08' E 010°18'1110.6
2015-May-03 18:33N 42°57' E 010°19'20 1.2
2015-May-03 02:10N 43°13' E 010°04'711.0
2015-May-03 01:34N 43°19' E 010°06'1110.8
2015-May-03 00:33N 43°30' E 010°06'1110.9
2015-May-02 23:33N 43°41' E 010°05'1111.1
2015-May-02 22:33N 43°52' E 010°04'10 9.9
2015-May-02 21:33N 44°02' E 010°02'0 0.1
2015-May-02 20:33N 44°02' E 010°02'0 0.0
2015-May-02 19:30N 44°02' E 010°02'0 0.0
2015-May-02 18:33N 44°02' E 010°02'0 0.0
2015-May-02 17:33N 44°02' E 010°02'0 0.0
2015-May-02 16:33N 44°02' E 010°02'0 0.0
2015-May-02 15:33N 44°02' E 010°02'0 0.0
2015-May-02 14:33N 44°02' E 010°02'0 0.0
2015-May-02 13:33N 44°02' E 010°02'0 0.0
2015-May-02 12:30N 44°02' E 010°02'0 0.0
2015-May-02 11:33N 44°02' E 010°02'0 0.0
2015-May-02 10:30N 44°02' E 010°02'0 0.0
2015-May-02 09:33N 44°02' E 010°02'0 0.0
2015-May-02 08:33N 44°02' E 010°02'0 0.0
2015-May-02 07:33N 44°02' E 010°02'0 0.0
2015-May-02 06:33N 44°02' E 010°02'0 0.0
2015-May-02 05:33N 44°02' E 010°02'0 0.0
2015-May-02 04:33N 44°02' E 010°02'0 0.0
2015-May-02 03:33N 44°02' E 010°02'0 0.0
2015-May-02 02:33N 44°02' E 010°02'0 0.0
2015-May-02 01:33N 44°02' E 010°02'0 0.0
2015-May-02 00:33N 44°02' E 010°02'0 0.0
2015-May-01 23:33N 44°02' E 010°02'0 0.0
2015-May-01 22:33N 44°02' E 010°02'0 0.0
2015-May-01 21:33N 44°02' E 010°02'0 0.0
2015-May-01 20:33N 44°02' E 010°02'0 0.0
2015-May-01 19:33N 44°02' E 010°02'0 0.0
2015-May-01 18:33N 44°02' E 010°02'0 0.0
2015-May-01 17:33N 44°02' E 010°02'0 0.0
2015-May-01 16:33N 44°02' E 010°02'0 0.0
2015-May-01 15:33N 44°02' E 010°02'0 0.0
2015-May-01 14:33N 44°02' E 010°02'0 0.0
2015-May-01 13:33N 44°02' E 010°02'0 0.0
2015-May-01 12:33N 44°02' E 010°02'0 0.0
2015-May-01 11:33N 44°02' E 010°02'0 0.0
2015-May-01 10:33N 44°02' E 010°02'0 0.0
2015-May-01 09:33N 44°02' E 010°02'0 0.0
2015-May-01 08:33N 44°02' E 010°02'0 0.0
2015-May-01 07:33N 44°02' E 010°02'0 0.0
2015-May-01 06:33N 44°02' E 010°02'0 0.0
2015-May-01 05:33N 44°02' E 010°02'0 0.0
2015-May-01 04:33N 44°02' E 010°02'0 0.0
2015-May-01 03:33N 44°02' E 010°02'0 0.0
2015-May-01 02:33N 44°02' E 010°02'0 0.0
2015-May-01 01:33N 44°02' E 010°02'0 0.0
2015-May-01 00:33N 44°02' E 010°02'0 0.0
2015-Apr-30 23:33N 44°02' E 010°02'0 0.0
2015-Apr-30 22:33N 44°02' E 010°02'0 0.0
2015-Apr-30 21:33N 44°02' E 010°02'0 0.0
2015-Apr-30 20:33N 44°02' E 010°02'0 0.0
2015-Apr-30 19:33N 44°02' E 010°02'0 0.0
2015-Apr-30 18:33N 44°02' E 010°02'0 0.0
2015-Apr-30 17:33N 44°02' E 010°02'0 0.0
2015-Apr-30 16:33N 44°02' E 010°02'7 7.2
2015-Apr-30 15:33N 44°02' E 009°52'2 1.8
2015-Apr-30 14:31N 44°03' E 009°51'0 0.0
2015-Apr-30 13:31N 44°03' E 009°51'0 0.0
2015-Apr-30 12:31N 44°03' E 009°51'0 0.0
2015-Apr-30 11:31N 44°03' E 009°51'0 0.0
2015-Apr-30 10:31N 44°03' E 009°51'0 0.0
2015-Apr-30 09:31N 44°03' E 009°51'0 0.0
2015-Apr-30 08:31N 44°03' E 009°51'0 0.0
2015-Apr-30 07:31N 44°03' E 009°51'0 0.0
2015-Apr-30 06:31N 44°03' E 009°51'0 0.0
2015-Apr-30 05:31N 44°03' E 009°51'0 0.0
2015-Apr-30 04:31N 44°03' E 009°51'0 0.0
2015-Apr-30 03:31N 44°03' E 009°51'0 0.0
2015-Apr-30 02:31N 44°03' E 009°51'0 0.0
2015-Apr-30 01:33N 44°03' E 009°51'0 0.0
2015-Apr-30 00:33N 44°03' E 009°51'0 0.0
2015-Apr-29 23:33N 44°03' E 009°51'0 0.0
2015-Apr-29 22:33N 44°03' E 009°51'0 0.0
2015-Apr-29 21:33N 44°03' E 009°51'0 0.0
2015-Apr-29 20:33N 44°03' E 009°51'1 0.9
2015-Apr-29 19:33N 44°03' E 009°52'6 6.3
2015-Apr-29 18:33N 44°01' E 009°44'1111.4
2015-Apr-29 17:33N 44°08' E 009°31'1311.2
2015-Apr-29 16:25N 44°17' E 009°18'4 0.2
2015-Apr-28 19:33N 44°16' E 009°13'1111.0
2015-Apr-28 18:33N 44°10' E 009°00'1111.3
2015-Apr-28 17:33N 44°04' E 008°47'1211.8
2015-Apr-28 16:33N 43°59' E 008°32'5611.0
2015-Apr-28 11:29N 43°40' E 007°19'2 2.2
2015-Apr-28 10:29N 43°42' E 007°17'0 0.0
2015-Apr-28 09:29N 43°42' E 007°17'0 0.0
2015-Apr-28 08:17N 43°42' E 007°17'0 0.0
2015-Apr-28 07:29N 43°42' E 007°17'0 0.0
2015-Apr-28 06:29N 43°42' E 007°17'0 0.0
2015-Apr-28 05:29N 43°42' E 007°17'0 0.0
2015-Apr-28 04:29N 43°42' E 007°17'0 0.0
2015-Apr-28 03:29N 43°42' E 007°17'0 0.0
2015-Apr-28 02:29N 43°42' E 007°17'0 0.0
2015-Apr-28 01:29N 43°42' E 007°17'0 0.0
2015-Apr-28 00:29N 43°42' E 007°17'0 0.0
2015-Apr-27 23:29N 43°42' E 007°17'0 0.0
2015-Apr-27 22:29N 43°42' E 007°17'0 0.0
2015-Apr-27 21:11N 43°42' E 007°17'0 0.0
2015-Apr-27 20:29N 43°42' E 007°17'0 0.0
2015-Apr-27 19:29N 43°42' E 007°17'0 0.0
2015-Apr-27 18:29N 43°42' E 007°17'0 0.0
2015-Apr-27 17:29N 43°42' E 007°17'0 0.0
2015-Apr-27 16:23N 43°42' E 007°17'0 0.0
2015-Apr-27 15:29N 43°42' E 007°17'0 0.0
2015-Apr-27 14:29N 43°42' E 007°17'0 0.0
2015-Apr-27 13:29N 43°42' E 007°17'0 0.0
2015-Apr-27 12:29N 43°42' E 007°17'0 0.0
2015-Apr-27 11:29N 43°42' E 007°17'0 0.0
2015-Apr-27 10:29N 43°42' E 007°17'0 0.0
2015-Apr-27 09:29N 43°42' E 007°17'0 0.0
2015-Apr-27 08:29N 43°42' E 007°17'0 0.0
2015-Apr-27 07:29N 43°42' E 007°17'0 0.0
2015-Apr-27 06:29N 43°42' E 007°17'0 0.0
2015-Apr-27 05:23N 43°42' E 007°17'0 0.0
2015-Apr-27 04:29N 43°42' E 007°17'0 0.0
2015-Apr-27 03:29N 43°42' E 007°17'0 0.0
2015-Apr-27 02:29N 43°42' E 007°17'0 0.0
2015-Apr-27 01:29N 43°42' E 007°17'0 0.0
2015-Apr-26 23:29N 43°42' E 007°17'0 0.0
2015-Apr-26 22:29N 43°42' E 007°17'0 0.0
2015-Apr-26 21:29N 43°42' E 007°17'0 0.0
2015-Apr-26 20:29N 43°42' E 007°17'0 0.0
2015-Apr-26 19:29N 43°42' E 007°17'0 0.0
2015-Apr-26 18:29N 43°42' E 007°17'0 0.0
2015-Apr-26 17:29N 43°42' E 007°17'0 0.0
2015-Apr-26 16:29N 43°42' E 007°17'0 0.0
2015-Apr-26 15:17N 43°42' E 007°17'0 0.0
2015-Apr-26 12:29N 43°42' E 007°17'0 0.0
2015-Apr-26 11:17N 43°42' E 007°17'0 0.0
2015-Apr-26 10:29N 43°42' E 007°17'0 0.0
2015-Apr-26 09:29N 43°42' E 007°17'0 0.0
2015-Apr-26 08:29N 43°42' E 007°17'0 0.0
2015-Apr-26 07:25N 43°42' E 007°17'0 0.0
2015-Apr-26 06:33N 43°42' E 007°17'74 9.2
2015-Apr-25 22:28N 44°09' E 008°53'9 9.5
2015-Apr-25 21:33N 44°12' E 009°04'10 8.4
2015-Apr-25 20:23N 44°19' E 009°14'2 0.2
2015-Apr-25 05:32N 44°18' E 009°17'1211.8
2015-Apr-25 04:33N 44°10' E 009°29'1211.7
2015-Apr-25 03:33N 44°02' E 009°41'8 7.7
2015-Apr-25 02:33N 44°03' E 009°51'0 0.3
2015-Apr-25 01:33N 44°03' E 009°51'0 0.0
2015-Apr-25 00:33N 44°03' E 009°51'0 0.0
2015-Apr-24 23:33N 44°03' E 009°51'0 0.0
2015-Apr-24 22:33N 44°03' E 009°51'0 0.0
2015-Apr-24 21:33N 44°03' E 009°51'  

Dump ship's entire track history